Time;durP1;ratioP1;P1;durP2;ratioP2;P2;SDS_P1;SDS_P2;PMS_P1;PMS_P2;Temp;Humidity;BMP_temperature;BMP_pressure;BME280_temperature;BME280_humidity;BME280_pressure;Samples;Min_cycle;Max_cycle;Signal;HPM_P1;HPM_P2
2022/07/15 05:03:25;;;;;;;8.05;2.95;;;17.40;81.80;;;;;;5052702;23;20147;-74
2022/07/15 05:05:51;;;;;;;4.75;2.42;;;17.50;82.20;;;;;;4917384;29;20377;-75
2022/07/15 05:08:20;;;;;;;5.32;2.30;;;17.50;82.30;;;;;;4945653;29;20035;-73
2022/07/15 05:10:51;;;;;;;5.80;2.63;;;17.60;82.20;;;;;;4930547;29;20036;-74
2022/07/15 05:13:17;;;;;;;4.63;2.35;;;17.60;81.70;;;;;;4926005;29;20043;-73
2022/07/15 05:15:45;;;;;;;7.60;2.70;;;17.70;81.60;;;;;;4910780;29;20079;-73
2022/07/15 05:18:22;;;;;;;7.72;2.83;;;17.80;81.80;;;;;;4938051;29;20036;-74
2022/07/15 05:20:50;;;;;;;6.83;2.63;;;17.90;81.70;;;;;;4907798;29;20059;-75
2022/07/15 05:23:17;;;;;;;8.25;3.42;;;18.00;81.40;;;;;;4923903;29;20486;-73
2022/07/15 05:25:46;;;;;;;7.95;2.40;;;18.10;80.30;;;;;;4926305;29;20031;-74
2022/07/15 05:28:12;;;;;;;6.53;2.20;;;18.20;80.20;;;;;;4941233;29;20031;-74
2022/07/15 05:30:41;;;;;;;5.38;2.35;;;18.30;79.20;;;;;;4926439;29;20190;-73
2022/07/15 05:33:09;;;;;;;7.72;2.17;;;18.40;78.00;;;;;;4927661;29;20050;-74
2022/07/15 05:35:35;;;;;;;6.95;2.00;;;18.40;77.60;;;;;;4924453;29;20092;-74
2022/07/15 05:38:02;;;;;;;7.65;2.45;;;18.40;76.60;;;;;;4908705;29;20036;-73
2022/07/15 05:40:30;;;;;;;;;;;18.50;76.20;;;;;;4917783;29;20036;-73
2022/07/15 05:42:56;;;;;;;5.25;2.60;;;18.40;76.60;;;;;;4927140;29;19929;-73
2022/07/15 05:45:22;;;;;;;5.55;2.05;;;18.50;76.90;;;;;;4926937;29;20047;-73
2022/07/15 05:47:55;;;;;;;5.45;2.28;;;18.70;76.40;;;;;;4926732;29;20186;-73
2022/07/15 05:50:25;;;;;;;6.88;2.30;;;18.80;76.00;;;;;;4927363;29;20130;-73
2022/07/15 05:52:54;;;;;;;5.55;2.05;;;18.80;75.30;;;;;;4922926;29;20708;-73
2022/07/15 05:55:20;;;;;;;4.70;2.15;;;18.90;75.10;;;;;;4930428;29;20174;-73
2022/07/15 05:57:46;;;;;;;5.53;1.80;;;18.90;74.80;;;;;;4926072;29;20032;-79
2022/07/15 06:00:13;;;;;;;7.95;2.15;;;19.00;74.90;;;;;;4916796;29;20032;-76
2022/07/15 06:02:44;;;;;;;6.28;2.95;;;19.20;75.00;;;;;;4922961;29;20119;-73
2022/07/15 06:05:19;;;;;;;5.47;2.40;;;19.20;74.90;;;;;;4919321;29;20029;-74
2022/07/15 06:07:49;;;;;;;6.00;2.40;;;19.30;75.20;;;;;;4932193;29;20041;-74
2022/07/15 06:10:18;;;;;;;5.28;2.13;;;19.40;74.80;;;;;;4922076;29;20080;-73
2022/07/15 06:12:44;;;;;;;7.47;2.30;;;19.40;74.20;;;;;;4957522;29;20040;-74
2022/07/15 06:15:10;;;;;;;5.35;2.05;;;19.50;73.60;;;;;;4924047;29;20051;-73
2022/07/15 06:17:36;;;;;;;6.68;2.33;;;19.50;73.80;;;;;;4909690;29;20258;-74
2022/07/15 06:20:05;;;;;;;7.22;2.30;;;19.60;73.30;;;;;;4909465;29;20048;-74
2022/07/15 06:22:31;;;;;;;8.95;2.22;;;19.70;73.40;;;;;;4926689;29;20325;-74
2022/07/15 06:24:56;;;;;;;6.43;2.03;;;19.90;72.60;;;;;;4938150;29;20232;-73
2022/07/15 06:27:22;;;;;;;7.10;1.98;;;20.00;71.60;;;;;;4916934;29;20222;-73
2022/07/15 06:29:51;;;;;;;4.72;2.03;;;20.10;71.00;;;;;;4907454;29;20040;-74
2022/07/15 06:32:19;;;;;;;8.02;1.92;;;20.20;70.50;;;;;;4907135;29;20056;-73
2022/07/15 06:34:45;;;;;;;7.30;1.92;;;20.20;69.30;;;;;;4908279;29;20214;-74
2022/07/15 06:37:11;;;;;;;5.25;1.90;;;20.30;69.70;;;;;;4941256;29;20214;-73
2022/07/15 06:39:37;;;;;;;4.65;1.80;;;20.40;69.80;;;;;;4957181;29;20103;-73
2022/07/15 06:42:05;;;;;;;5.80;2.05;;;20.50;69.70;;;;;;4908285;29;20371;-74
2022/07/15 06:44:32;;;;;;;6.45;1.98;;;20.60;68.90;;;;;;4906576;29;20160;-73
2022/07/15 06:47:06;;;;;;;6.18;1.98;;;20.70;69.20;;;;;;4890427;29;20044;-73
2022/07/15 06:49:37;;;;;;;6.78;2.33;;;20.80;68.60;;;;;;4890779;29;20039;-74
2022/07/15 06:52:03;;;;;;;6.45;2.00;;;20.90;68.30;;;;;;4910180;29;20040;-73
2022/07/15 06:54:30;;;;;;;4.28;1.98;;;21.00;67.60;;;;;;4909562;29;20047;-74
2022/07/15 06:56:57;;;;;;;5.70;1.77;;;21.00;67.30;;;;;;4940754;29;20253;-73
2022/07/15 06:59:23;;;;;;;6.43;1.80;;;21.10;67.00;;;;;;4926448;29;20095;-75
2022/07/15 07:01:50;;;;;;;5.95;1.85;;;21.20;66.50;;;;;;4925280;29;20052;-73
2022/07/15 07:04:17;;;;;;;5.20;1.90;;;21.40;65.20;;;;;;4925912;29;20048;-73
2022/07/15 07:06:43;;;;;;;5.30;2.10;;;21.40;65.70;;;;;;4928456;29;20031;-73
2022/07/15 07:09:09;;;;;;;4.05;1.45;;;21.60;64.90;;;;;;4944987;29;20031;-73
2022/07/15 07:11:35;;;;;;;5.28;1.38;;;21.60;64.30;;;;;;4927962;29;20084;-72
2022/07/15 07:14:01;;;;;;;4.75;1.35;;;21.70;62.70;;;;;;4944343;29;20096;-72
2022/07/15 07:16:27;;;;;;;5.28;1.40;;;21.70;63.50;;;;;;4925391;29;20046;-74
2022/07/15 07:18:53;;;;;;;5.53;1.80;;;21.80;64.10;;;;;;4925171;29;20322;-72
2022/07/15 07:21:19;;;;;;;4.93;1.30;;;22.00;63.20;;;;;;4925625;29;20028;-75
2022/07/15 07:23:46;;;;;;;5.80;1.50;;;22.00;63.30;;;;;;4943930;29;20031;-74
2022/07/15 07:26:13;;;;;;;9.13;1.65;;;22.00;62.00;;;;;;4944542;29;20209;-73
2022/07/15 07:28:40;;;;;;;3.58;1.27;;;22.20;62.30;;;;;;4943814;29;20288;-74
2022/07/15 07:31:11;;;;;;;8.55;1.70;;;22.30;61.30;;;;;;4944351;29;20043;-73
2022/07/15 07:33:38;;;;;;;3.72;1.40;;;22.40;61.20;;;;;;4944744;29;20027;-75
2022/07/15 07:36:05;;;;;;;7.18;1.73;;;22.60;60.50;;;;;;4944857;29;20032;-73
2022/07/15 07:38:31;;;;;;;7.88;1.67;;;22.60;58.90;;;;;;4944667;29;20039;-73
2022/07/15 07:40:57;;;;;;;7.38;1.30;;;22.60;58.90;;;;;;4944277;29;20245;-73
2022/07/15 07:43:23;;;;;;;4.68;1.35;;;22.70;59.30;;;;;;4944669;29;20042;-73
2022/07/15 07:45:50;;;;;;;5.00;1.25;;;23.00;57.60;;;;;;4943433;29;20058;-74
2022/07/15 07:48:16;;;;;;;5.35;1.23;;;23.10;57.40;;;;;;4943205;29;20047;-74
2022/07/15 07:50:44;;;;;;;5.25;1.15;;;23.10;56.90;;;;;;4927039;29;20038;-72
2022/07/15 07:53:12;;;;;;;3.35;1.00;;;23.20;56.70;;;;;;4937229;29;20047;-72
2022/07/15 07:55:39;;;;;;;3.22;1.05;;;23.20;56.90;;;;;;4924564;29;20333;-73
2022/07/15 07:58:05;;;;;;;2.90;1.02;;;23.30;56.50;;;;;;4925211;29;20032;-73
2022/07/15 08:00:31;;;;;;;3.72;1.20;;;23.30;55.60;;;;;;4943022;29;20035;-72
2022/07/15 08:02:59;;;;;;;6.25;1.60;;;23.40;56.00;;;;;;4943319;29;20126;-72
2022/07/15 08:05:25;;;;;;;4.63;1.10;;;23.40;56.50;;;;;;4927050;29;20258;-75
2022/07/15 08:08:04;;;;;;;4.30;1.10;;;23.50;56.20;;;;;;4943373;29;20268;-71
2022/07/15 08:10:30;;;;;;;3.63;1.10;;;23.60;56.30;;;;;;4958752;29;20031;-71
2022/07/15 08:12:56;;;;;;;4.85;1.25;;;23.80;56.10;;;;;;4943609;29;20039;-71
2022/07/15 08:15:22;;;;;;;3.63;1.30;;;23.80;55.50;;;;;;4931986;29;20258;-70
2022/07/15 08:17:47;;;;;;;3.08;1.10;;;23.80;55.50;;;;;;4941005;29;20062;-71
2022/07/15 08:20:13;;;;;;;3.67;1.00;;;24.00;55.50;;;;;;4943455;29;20286;-71
2022/07/15 08:22:39;;;;;;;2.70;1.00;;;24.00;55.60;;;;;;4943358;29;20031;-71
2022/07/15 08:25:06;;;;;;;4.03;1.30;;;23.80;55.20;;;;;;4926759;29;20031;-71
2022/07/15 08:27:31;;;;;;;3.50;1.10;;;23.80;55.40;;;;;;4937365;29;20082;-71
2022/07/15 08:29:57;;;;;;;5.20;1.08;;;24.00;56.10;;;;;;4943175;29;20051;-71
2022/07/15 08:32:24;;;;;;;3.40;1.50;;;24.00;55.00;;;;;;4943013;29;20039;-72
2022/07/15 08:34:50;;;;;;;4.82;1.15;;;24.00;55.00;;;;;;4943180;29;20313;-72
2022/07/15 08:37:19;;;;;;;3.38;1.25;;;23.90;54.00;;;;;;4943774;29;20046;-72
2022/07/15 08:39:44;;;;;;;3.22;1.10;;;23.80;53.80;;;;;;4942962;29;20032;-73
2022/07/15 08:42:11;;;;;;;2.45;1.00;;;23.80;55.20;;;;;;4943771;29;20060;-72
2022/07/15 08:44:37;;;;;;;3.42;1.00;;;23.70;55.40;;;;;;4942077;29;20028;-73
2022/07/15 08:47:05;;;;;;;4.13;1.38;;;23.70;55.90;;;;;;4942403;29;20114;-71
2022/07/15 08:49:33;;;;;;;4.93;1.10;;;23.70;56.30;;;;;;4943417;29;20095;-73
2022/07/15 08:52:01;;;;;;;3.35;1.00;;;23.70;55.50;;;;;;4943412;29;20099;-71
2022/07/15 08:54:28;;;;;;;3.80;1.00;;;23.80;56.00;;;;;;4943528;29;20127;-71
2022/07/15 08:56:55;;;;;;;4.10;1.10;;;23.90;55.80;;;;;;4943334;29;20094;-71
2022/07/15 08:59:22;;;;;;;2.88;1.02;;;24.00;55.40;;;;;;4948522;29;20028;-71
2022/07/15 09:01:49;;;;;;;5.32;1.30;;;24.00;55.50;;;;;;4944068;29;20059;-71
2022/07/15 09:04:16;;;;;;;3.85;1.30;;;24.00;56.10;;;;;;4962968;29;20038;-72
2022/07/15 09:06:45;;;;;;;4.87;1.47;;;24.20;54.50;;;;;;4962167;29;20313;-72
2022/07/15 09:09:33;;;;;;;3.55;1.30;;;24.10;54.50;;;;;;4939071;29;20051;-73
2022/07/15 09:12:05;;;;;;;4.57;1.30;;;24.30;55.40;;;;;;4923760;29;20040;-71
2022/07/15 09:14:35;;;;;;;5.07;1.55;;;23.80;55.40;;;;;;4928521;29;20144;-71
2022/07/15 09:17:10;;;;;;;2.50;1.10;;;23.70;55.90;;;;;;4942032;29;20087;-71
2022/07/15 09:20:00;;;;;;;6.40;1.50;;;23.90;56.20;;;;;;4937307;29;20031;-71
2022/07/15 09:22:29;;;;;;;5.07;1.20;;;24.00;56.30;;;;;;4924477;29;20043;-71
2022/07/15 09:25:04;;;;;;;;;;;24.20;56.40;;;;;;4924390;29;20056;-73
2022/07/15 09:27:32;;;;;;;4.47;1.25;;;24.50;55.80;;;;;;4938283;29;19931;-71
2022/07/15 09:36:18;;;;;;;3.85;1.33;;;24.90;54.80;;;;;;4945955;29;20440;-72
2022/07/15 09:38:59;;;;;;;2.95;1.25;;;24.80;54.50;;;;;;4928958;29;20039;-71
2022/07/15 09:41:43;;;;;;;6.40;1.60;;;24.80;54.50;;;;;;4946601;29;20281;-71
2022/07/15 09:44:17;;;;;;;16.15;2.00;;;24.70;55.50;;;;;;4946618;29;20035;-77
2022/07/15 09:47:01;;;;;;;4.93;1.33;;;24.90;55.40;;;;;;4941441;29;20044;-72
2022/07/15 09:49:26;;;;;;;5.10;1.42;;;25.10;55.20;;;;;;4946513;29;20052;-75
2022/07/15 09:51:59;;;;;;;5.75;1.52;;;25.30;54.30;;;;;;4942572;29;20055;-72
2022/07/15 09:54:26;;;;;;;3.88;1.30;;;25.40;53.70;;;;;;4938324;29;20322;-72
2022/07/15 09:56:53;;;;;;;5.30;1.30;;;25.40;53.90;;;;;;4934035;29;20310;-70
2022/07/15 09:59:19;;;;;;;4.82;1.17;;;25.30;53.70;;;;;;4946247;29;20059;-71
2022/07/15 10:01:47;;;;;;;6.93;1.60;;;25.20;53.90;;;;;;4925661;29;20071;-73
2022/07/15 10:04:16;;;;;;;5.60;1.60;;;25.20;53.60;;;;;;4926945;29;20027;-73
2022/07/15 10:06:42;;;;;;;2.85;1.30;;;25.30;53.90;;;;;;4926813;29;20028;-72
2022/07/15 10:09:09;;;;;;;2.63;1.20;;;25.20;53.20;;;;;;4926900;29;20048;-72
2022/07/15 10:11:46;;;;;;;3.45;1.52;;;25.30;53.50;;;;;;4926704;29;20028;-72
2022/07/15 10:14:43;;;;;;;4.18;1.52;;;25.30;53.80;;;;;;4927610;29;20076;-72
2022/07/15 10:17:24;;;;;;;3.67;1.20;;;25.50;53.40;;;;;;4944716;29;20123;-71
2022/07/15 10:19:49;;;;;;;9.38;1.50;;;25.50;53.00;;;;;;4944678;29;20031;-71
2022/07/15 10:22:40;;;;;;;3.13;1.02;;;25.70;53.70;;;;;;4945369;29;20032;-72
2022/07/15 10:25:32;;;;;;;2.50;1.05;;;26.10;53.40;;;;;;4944944;29;20310;-72
2022/07/15 10:28:27;;;;;;;3.38;1.27;;;26.50;52.80;;;;;;4945116;29;20032;-73
2022/07/15 10:31:16;;;;;;;7.32;1.48;;;26.70;52.50;;;;;;4891560;29;20103;-72
2022/07/15 10:33:43;;;;;;;4.72;1.10;;;26.70;52.30;;;;;;4945510;29;20031;-73
2022/07/15 10:36:09;;;;;;;7.03;1.38;;;26.70;51.70;;;;;;4945550;29;20421;-72
2022/07/15 10:38:38;;;;;;;4.32;1.33;;;26.80;51.50;;;;;;4944139;29;20086;-72
2022/07/15 10:41:10;;;;;;;;;;;26.90;52.10;;;;;;4945541;29;20317;-73
2022/07/15 10:43:45;;;;;;;4.50;1.10;;;27.00;51.50;;;;;;4945506;29;20227;-71
2022/07/15 10:46:17;;;;;;;5.40;1.27;;;27.00;52.20;;;;;;4945483;29;20059;-73
2022/07/15 10:48:51;;;;;;;5.82;1.45;;;27.10;52.10;;;;;;4946277;29;20039;-72
2022/07/15 10:51:46;;;;;;;3.60;1.20;;;26.90;51.90;;;;;;4944389;29;20075;-73
2022/07/15 10:54:17;;;;;;;3.38;1.30;;;26.80;52.20;;;;;;4928482;29;20047;-73
2022/07/15 10:56:47;;;;;;;4.75;1.33;;;26.80;52.30;;;;;;4944936;29;20031;-74
2022/07/15 10:59:24;;;;;;;8.02;1.40;;;26.80;52.40;;;;;;4949465;29;20031;-75
2022/07/15 11:02:12;;;;;;;4.27;1.47;;;26.80;51.60;;;;;;4950493;29;20341;-76
2022/07/15 11:04:38;;;;;;;4.90;1.30;;;26.80;51.90;;;;;;4941261;29;20163;-78
2022/07/15 11:07:07;;;;;;;4.10;1.33;;;26.80;51.50;;;;;;4940693;29;20047;-77
2022/07/15 11:10:07;;;;;;;5.15;1.42;;;27.00;51.50;;;;;;4941662;29;20046;-76
2022/07/15 11:12:32;;;;;;;7.50;1.38;;;27.30;51.30;;;;;;4941682;29;20313;-74
2022/07/15 11:15:23;;;;;;;5.97;1.55;;;27.60;51.00;;;;;;4942514;29;20019;-75
2022/07/15 11:17:53;;;;;;;8.15;1.65;;;28.00;50.80;;;;;;4918490;29;20199;-74
2022/07/15 11:20:25;;;;;;;6.55;1.67;;;28.10;50.70;;;;;;4932875;29;20137;-73
2022/07/15 11:22:57;;;;;;;4.75;1.48;;;28.50;50.40;;;;;;4932428;29;20024;-77
2022/07/15 11:25:37;;;;;;;5.07;1.38;;;28.80;49.30;;;;;;4944017;29;20316;-77
2022/07/15 11:28:12;;;;;;;3.92;1.55;;;29.10;49.50;;;;;;4938918;29;20063;-78
2022/07/15 11:30:42;;;;;;;5.15;2.38;;;29.30;49.30;;;;;;4944698;29;20043;-76
2022/07/15 11:33:12;;;;;;;6.78;1.55;;;29.30;49.90;;;;;;4937518;29;20072;-74
2022/07/15 11:35:53;;;;;;;4.47;1.35;;;29.20;50.10;;;;;;4942992;29;20028;-77
2022/07/15 11:38:23;;;;;;;4.93;1.60;;;29.20;48.80;;;;;;4935930;29;20032;-73
2022/07/15 11:46:24;;;;;;;5.15;1.63;;;30.60;48.80;;;;;;4943817;29;20217;-76
2022/07/15 11:48:51;;;;;;;5.28;1.50;;;31.00;47.90;;;;;;4942834;29;20059;-77
2022/07/15 11:51:27;;;;;;;5.75;1.83;;;31.90;47.10;;;;;;4945130;29;20095;-73
2022/07/15 11:53:54;;;;;;;3.80;1.52;;;32.70;46.10;;;;;;4943361;29;20221;-74
2022/07/15 11:56:20;;;;;;;2.75;1.40;;;33.50;45.80;;;;;;4943975;29;20023;-75
2022/07/15 11:58:50;;;;;;;3.80;1.40;;;33.50;45.00;;;;;;4943749;29;20047;-76
2022/07/15 12:01:20;;;;;;;5.45;1.60;;;34.40;44.90;;;;;;4943379;29;20040;-77
2022/07/15 12:03:48;;;;;;;6.22;1.60;;;35.40;44.10;;;;;;4943983;29;20051;-75
2022/07/15 12:06:15;;;;;;;5.43;1.30;;;35.10;43.80;;;;;;4944357;29;20181;-76
2022/07/15 12:08:47;;;;;;;7.47;1.45;;;34.10;44.80;;;;;;4944063;29;20091;-78
2022/07/15 12:11:21;;;;;;;4.50;1.60;;;32.90;45.70;;;;;;4931130;29;20043;-76
2022/07/15 12:13:55;;;;;;;4.30;1.52;;;31.80;46.80;;;;;;4924925;29;20050;-74
2022/07/15 12:16:27;;;;;;;4.47;1.40;;;31.20;47.40;;;;;;4961406;29;20091;-74
2022/07/15 12:18:55;;;;;;;4.60;1.40;;;31.80;47.70;;;;;;4961940;29;20038;-75
2022/07/15 12:21:22;;;;;;;3.35;1.38;;;31.60;46.60;;;;;;4925153;29;20028;-73
2022/07/15 12:24:04;;;;;;;4.43;1.40;;;31.70;47.30;;;;;;4924712;29;20028;-75
2022/07/15 12:26:31;;;;;;;13.23;2.75;;;33.00;46.30;;;;;;4930068;29;20062;-78
2022/07/15 12:29:02;;;;;;;10.27;1.77;;;33.60;45.90;;;;;;4947436;29;20040;-78
2022/07/15 12:31:31;;;;;;;5.00;1.52;;;33.20;45.50;;;;;;4945484;29;20043;-78
2022/07/15 12:33:57;;;;;;;4.80;1.58;;;33.30;45.40;;;;;;4944637;29;20126;-78
2022/07/15 12:36:32;;;;;;;4.65;1.25;;;32.60;46.10;;;;;;4945872;29;20039;-79
2022/07/15 12:39:05;;;;;;;4.35;1.20;;;32.50;45.70;;;;;;4930282;29;20032;-79
2022/07/15 12:41:36;;;;;;;4.65;1.50;;;31.70;46.30;;;;;;4923766;29;20035;-79
2022/07/15 12:47:26;;;;;;;3.03;1.30;;;33.70;44.80;;;;;;4943604;29;20074;-81
2022/07/15 12:49:55;;;;;;;4.35;1.17;;;35.30;43.90;;;;;;4942232;29;20039;-80
2022/07/15 12:52:25;;;;;;;5.20;1.25;;;36.10;43.30;;;;;;4943684;29;20074;-79
2022/07/15 12:54:54;;;;;;;3.38;1.50;;;37.20;43.00;;;;;;4943302;29;20039;-79
2022/07/15 12:57:37;;;;;;;3.42;1.00;;;37.60;41.90;;;;;;4943688;29;20039;-79
2022/07/15 13:00:10;;;;;;;2.63;1.30;;;37.10;42.30;;;;;;4953783;29;20042;-80
2022/07/15 13:02:56;;;;;;;4.28;1.40;;;37.30;42.40;;;;;;4937031;29;20115;-76
2022/07/15 13:05:23;;;;;;;4.00;1.40;;;38.40;42.00;;;;;;4930835;29;20046;-80
2022/07/15 13:07:52;;;;;;;3.58;1.15;;;39.70;41.20;;;;;;4947793;29;20042;-80
2022/07/15 13:10:18;;;;;;;2.17;1.00;;;39.80;40.30;;;;;;4947769;29;20047;-79
2022/07/15 13:12:44;;;;;;;4.60;2.00;;;39.80;40.20;;;;;;4947847;29;20023;-79
2022/07/15 13:15:10;;;;;;;4.82;1.23;;;40.20;40.50;;;;;;4920260;29;20266;-79
2022/07/15 13:17:36;;;;;;;3.85;0.98;;;40.90;39.80;;;;;;4927456;29;20042;-79
2022/07/15 13:20:04;;;;;;;3.85;1.10;;;41.40;40.20;;;;;;4927580;29;20086;-80
2022/07/15 13:22:34;;;;;;;2.63;1.02;;;42.10;39.30;;;;;;4928431;29;20039;-79
2022/07/15 13:25:00;;;;;;;3.15;1.30;;;42.40;39.10;;;;;;4927881;29;20290;-76
2022/07/15 13:27:26;;;;;;;2.38;1.13;;;42.70;38.30;;;;;;4928290;29;20263;-75
2022/07/15 13:29:52;;;;;;;3.67;1.00;;;42.90;38.90;;;;;;4927690;29;20051;-80
2022/07/15 13:32:17;;;;;;;2.72;1.05;;;43.30;38.00;;;;;;4927387;29;20051;-76
2022/07/15 13:34:43;;;;;;;3.13;1.10;;;42.60;38.10;;;;;;4926663;29;20091;-77
2022/07/15 13:37:09;;;;;;;3.97;1.20;;;41.10;38.90;;;;;;4926966;29;20210;-77
2022/07/15 13:39:35;;;;;;;5.53;1.35;;;39.30;39.70;;;;;;4927679;29;20106;-80
2022/07/15 13:42:01;;;;;;;4.07;1.40;;;38.70;40.40;;;;;;4927364;29;20020;-79
2022/07/15 13:44:27;;;;;;;3.10;1.30;;;38.10;40.40;;;;;;4933132;29;20032;-80
2022/07/15 13:46:53;;;;;;;4.82;1.48;;;36.60;41.50;;;;;;4946058;29;20044;-78
2022/07/15 13:51:22;;;;;;;3.13;1.17;;;35.70;42.40;;;;;;4929682;29;20038;-78
2022/07/15 13:52:04;;;;;;;4.90;1.25;;;34.30;43.50;;;;;;4945990;29;20102;-79
2022/07/15 13:54:30;;;;;;;3.75;1.67;;;33.20;44.50;;;;;;4929687;29;20034;-79
2022/07/15 13:56:56;;;;;;;6.47;1.40;;;32.20;45.40;;;;;;4946271;29;20058;-79
2022/07/15 13:59:22;;;;;;;4.00;1.30;;;31.50;46.10;;;;;;4940757;29;20036;-79
2022/07/15 14:01:48;;;;;;;3.58;1.38;;;31.10;46.70;;;;;;4929772;29;20349;-78
2022/07/15 14:04:14;;;;;;;3.90;1.40;;;30.90;47.00;;;;;;4946038;29;20073;-79
2022/07/15 14:06:39;;;;;;;4.45;1.15;;;30.60;47.20;;;;;;4946161;29;20031;-79
2022/07/15 14:09:05;;;;;;;2.22;1.05;;;30.40;47.70;;;;;;4945590;29;20101;-78
2022/07/15 14:11:31;;;;;;;4.22;1.40;;;30.20;47.70;;;;;;4946603;29;20032;-77
2022/07/15 14:13:56;;;;;;;2.67;1.40;;;30.10;48.20;;;;;;4945716;29;20302;-78
2022/07/15 14:16:22;;;;;;;3.33;1.30;;;30.10;47.90;;;;;;4926749;29;20055;-78
2022/07/15 14:18:48;;;;;;;3.65;1.55;;;29.80;48.20;;;;;;4927223;29;20028;-75
2022/07/15 14:21:16;;;;;;;4.05;1.30;;;29.70;48.70;;;;;;4926615;29;20048;-78
2022/07/15 14:23:43;;;;;;;2.80;1.35;;;29.60;48.40;;;;;;4926918;29;20016;-76
2022/07/15 14:26:09;;;;;;;3.55;1.25;;;29.60;48.40;;;;;;4912048;29;20032;-78
2022/07/15 14:28:36;;;;;;;4.60;1.48;;;29.50;48.60;;;;;;4945977;29;20084;-76
2022/07/15 14:31:04;;;;;;;4.18;1.40;;;29.90;48.60;;;;;;4944708;29;20039;-76
2022/07/15 14:33:30;;;;;;;2.80;1.33;;;30.50;47.70;;;;;;4945696;29;20032;-76
2022/07/15 14:35:55;;;;;;;2.78;1.17;;;32.00;46.90;;;;;;4945269;29;20499;-78
2022/07/15 14:38:21;;;;;;;3.00;1.13;;;35.10;44.70;;;;;;4945450;29;20078;-78
2022/07/15 14:40:47;;;;;;;3.05;1.40;;;37.90;42.20;;;;;;4945825;29;20028;-78
2022/07/15 14:43:12;;;;;;;5.15;1.20;;;39.60;40.80;;;;;;4945385;29;20261;-79
2022/07/15 14:45:38;;;;;;;3.10;0.95;;;41.30;39.80;;;;;;4960212;29;20062;-78
2022/07/15 14:48:04;;;;;;;3.15;1.02;;;41.80;39.00;;;;;;4964441;29;20194;-78
2022/07/15 14:50:32;;;;;;;3.00;0.95;;;42.50;38.90;;;;;;4964979;29;20494;-78
2022/07/15 14:53:02;;;;;;;3.63;1.10;;;43.10;38.30;;;;;;4964531;29;20043;-79
2022/07/15 14:55:28;;;;;;;2.33;1.00;;;43.40;38.10;;;;;;4957067;29;20241;-78
2022/07/15 14:57:53;;;;;;;4.47;1.00;;;43.50;37.90;;;;;;4946244;29;20035;-79
2022/07/15 15:00:19;;;;;;;3.55;0.98;;;44.20;37.80;;;;;;4946745;29;20050;-78
2022/07/15 15:02:46;;;;;;;4.22;1.10;;;44.60;37.20;;;;;;4929078;29;20048;-80
2022/07/15 15:05:18;;;;;;;2.42;0.90;;;44.50;37.40;;;;;;4929566;29;20054;-80
2022/07/15 15:07:44;;;;;;;3.90;1.10;;;44.70;37.20;;;;;;4913562;29;20034;-76
2022/07/15 15:10:10;;;;;;;2.10;0.88;;;44.70;36.70;;;;;;4945924;29;20059;-79
2022/07/15 15:12:36;;;;;;;3.13;1.10;;;44.40;37.00;;;;;;4944216;29;20034;-80
2022/07/15 15:15:02;;;;;;;3.58;1.00;;;44.70;36.90;;;;;;4926830;29;20032;-80
2022/07/15 15:17:28;;;;;;;4.30;1.05;;;45.20;36.70;;;;;;4927503;29;20329;-80
2022/07/15 15:19:54;;;;;;;3.45;1.00;;;44.90;36.70;;;;;;4927045;29;20036;-78
2022/07/15 15:22:20;;;;;;;3.55;1.00;;;44.80;37.00;;;;;;4925573;29;20225;-78
2022/07/15 15:24:45;;;;;;;2.78;1.00;;;44.70;36.80;;;;;;4929096;29;20254;-81
2022/07/15 15:27:11;;;;;;;3.45;1.17;;;44.20;36.80;;;;;;4945913;29;20039;-78
2022/07/15 15:29:38;;;;;;;2.45;0.77;;;43.40;37.20;;;;;;4929044;29;20043;-78
2022/07/15 15:32:05;;;;;;;2.72;0.93;;;43.20;37.50;;;;;;4945407;29;20082;-79
2022/07/15 15:34:45;;;;;;;3.83;1.40;;;42.90;37.30;;;;;;4946298;29;20318;-79
2022/07/15 15:37:12;;;;;;;2.20;1.00;;;42.50;37.50;;;;;;4929095;29;20198;-81
2022/07/15 15:39:38;;;;;;;2.83;1.17;;;43.10;37.40;;;;;;4927054;29;20046;-80
2022/07/15 15:42:07;;;;;;;3.00;1.23;;;43.10;37.10;;;;;;4945938;29;20103;-80
2022/07/15 15:44:34;;;;;;;3.88;1.00;;;43.60;37.10;;;;;;4946127;29;20325;-78
2022/07/15 15:47:03;;;;;;;2.58;1.20;;;44.20;36.80;;;;;;4960035;29;20054;-81
2022/07/15 15:49:29;;;;;;;3.20;1.20;;;44.60;36.30;;;;;;4948332;29;20053;-79
2022/07/15 15:51:55;;;;;;;1.77;0.80;;;44.40;36.30;;;;;;4965106;29;20062;-80
2022/07/15 15:54:21;;;;;;;2.50;1.10;;;43.80;36.70;;;;;;4964567;29;20361;-80
2022/07/15 15:56:47;;;;;;;3.20;1.20;;;44.40;36.70;;;;;;4947615;29;20043;-82
2022/07/15 15:59:13;;;;;;;4.28;1.00;;;43.80;36.50;;;;;;4964742;29;20328;-81
2022/07/15 16:01:42;;;;;;;2.97;1.10;;;44.10;36.30;;;;;;4941920;29;20043;-79
2022/07/15 16:04:07;;;;;;;3.38;1.17;;;43.90;36.20;;;;;;4945713;29;20031;-78
2022/07/15 16:06:33;;;;;;;3.22;1.05;;;43.30;36.40;;;;;;4928743;29;20348;-77
2022/07/15 16:09:02;;;;;;;3.83;1.08;;;42.70;36.80;;;;;;4945728;29;20087;-77
2022/07/15 16:11:28;;;;;;;3.33;0.90;;;42.00;37.30;;;;;;4945390;29;20027;-77
2022/07/15 16:13:53;;;;;;;3.50;1.27;;;42.00;37.00;;;;;;4929200;29;20051;-76
2022/07/15 16:16:19;;;;;;;3.28;1.00;;;42.60;37.00;;;;;;4946311;29;20070;-77
2022/07/15 16:18:46;;;;;;;3.30;0.90;;;42.00;37.50;;;;;;4947343;29;20028;-78
2022/07/15 16:21:13;;;;;;;3.35;1.10;;;42.10;37.10;;;;;;4946320;29;20031;-78
2022/07/15 16:23:39;;;;;;;2.78;1.17;;;42.80;36.70;;;;;;4944671;29;20087;-78
2022/07/15 16:26:07;;;;;;;5.40;1.00;;;42.50;36.70;;;;;;4943772;29;20043;-79
2022/07/15 16:28:36;;;;;;;3.42;1.15;;;42.50;36.70;;;;;;4928581;29;20024;-80
2022/07/15 16:31:04;;;;;;;3.83;1.08;;;42.80;36.80;;;;;;4944223;29;20047;-80
2022/07/15 16:33:30;;;;;;;4.05;1.00;;;42.60;36.80;;;;;;4945313;29;20043;-79
2022/07/15 16:35:56;;;;;;;3.05;1.08;;;42.60;37.20;;;;;;4943956;29;20091;-79
2022/07/15 16:38:22;;;;;;;2.88;0.98;;;42.20;36.80;;;;;;4944180;29;20206;-81
2022/07/15 16:40:48;;;;;;;3.13;0.90;;;42.00;37.00;;;;;;4944131;29;20083;-78
2022/07/15 16:43:14;;;;;;;2.22;0.98;;;41.80;36.90;;;;;;4944598;29;20441;-80
2022/07/15 16:45:40;;;;;;;2.13;0.93;;;41.60;37.10;;;;;;4944835;29;20042;-79
2022/07/15 16:48:06;;;;;;;2.67;1.10;;;42.00;37.10;;;;;;4944924;29;20115;-78
2022/07/15 16:50:33;;;;;;;2.75;1.00;;;42.20;37.00;;;;;;4944911;29;20044;-76
2022/07/15 16:52:59;;;;;;;2.75;1.20;;;41.10;37.30;;;;;;4944904;29;20063;-79
2022/07/15 16:55:24;;;;;;;1.95;1.02;;;39.20;38.40;;;;;;4944669;29;20023;-80
2022/07/15 16:57:53;;;;;;;2.83;1.13;;;36.90;39.90;;;;;;4944937;29;20042;-79
2022/07/15 17:00:25;;;;;;;4.22;1.30;;;35.50;41.00;;;;;;4943699;29;20043;-78
2022/07/15 17:02:53;;;;;;;5.78;1.48;;;34.00;42.30;;;;;;4944490;29;20090;-76
2022/07/15 17:05:18;;;;;;;3.65;1.65;;;32.70;43.50;;;;;;4944610;29;20024;-80
2022/07/15 17:07:44;;;;;;;4.82;1.70;;;32.00;44.70;;;;;;4943542;29;20119;-79
2022/07/15 17:10:10;;;;;;;3.78;1.65;;;32.10;44.10;;;;;;4943611;29;20306;-77
2022/07/15 17:12:36;;;;;;;2.75;1.38;;;33.10;43.30;;;;;;4944517;29;20054;-77
2022/07/15 17:15:02;;;;;;;7.68;1.48;;;34.70;42.60;;;;;;4945125;29;20234;-78
2022/07/15 17:17:29;;;;;;;2.70;1.20;;;36.00;42.00;;;;;;4942798;29;20044;-78
2022/07/15 17:19:55;;;;;;;4.47;1.20;;;36.60;40.60;;;;;;4944564;29;20051;-78
2022/07/15 17:22:20;;;;;;;5.10;1.30;;;36.70;40.50;;;;;;4944250;29;20036;-77
2022/07/15 17:24:46;;;;;;;3.50;1.10;;;37.30;40.30;;;;;;4944642;29;20038;-78
2022/07/15 17:27:12;;;;;;;2.60;0.98;;;37.70;39.60;;;;;;4944231;29;20314;-79
2022/07/15 17:29:39;;;;;;;4.72;1.27;;;37.60;39.70;;;;;;4944804;29;20294;-79
2022/07/15 17:32:05;;;;;;;3.30;1.20;;;38.20;39.60;;;;;;4942779;29;20317;-78
2022/07/15 17:34:31;;;;;;;2.25;0.90;;;38.30;39.20;;;;;;4944534;29;20262;-79
2022/07/15 17:36:56;;;;;;;2.65;1.10;;;38.30;39.40;;;;;;4944644;29;20035;-80
2022/07/15 17:39:22;;;;;;;4.05;1.10;;;38.30;39.40;;;;;;4944349;29;20034;-79
2022/07/15 17:41:48;;;;;;;4.22;1.30;;;38.50;39.20;;;;;;4944624;29;20090;-78
2022/07/15 17:44:13;;;;;;;3.00;1.02;;;38.90;39.00;;;;;;4943957;29;20023;-79
2022/07/15 17:46:40;;;;;;;4.43;1.27;;;38.10;39.20;;;;;;4955688;29;20039;-79
2022/07/15 17:49:06;;;;;;;3.17;1.20;;;37.90;39.50;;;;;;4948917;29;20039;-78
2022/07/15 17:51:31;;;;;;;4.55;1.23;;;37.80;39.80;;;;;;4950792;29;20027;-79
2022/07/15 17:53:58;;;;;;;2.65;1.23;;;37.30;39.90;;;;;;4968292;29;20222;-79
2022/07/15 17:56:24;;;;;;;3.28;1.10;;;37.10;40.00;;;;;;4968224;29;20038;-79
2022/07/15 17:58:52;;;;;;;4.15;1.13;;;36.70;40.20;;;;;;4967058;29;20031;-80
2022/07/15 18:01:18;;;;;;;3.72;1.30;;;36.50;40.50;;;;;;4938548;29;20077;-80
2022/07/15 18:03:44;;;;;;;4.32;1.23;;;36.80;40.30;;;;;;4947290;29;20389;-77
2022/07/15 18:06:10;;;;;;;4.75;1.23;;;36.30;40.60;;;;;;4947483;29;20039;-76
2022/07/15 18:08:37;;;;;;;2.95;1.30;;;36.50;40.50;;;;;;4930913;29;20032;-80
2022/07/15 18:11:03;;;;;;;;;;;36.10;40.70;;;;;;4947144;29;20058;-79
2022/07/15 18:13:29;;;;;;;2.53;1.00;;;35.80;41.10;;;;;;4946999;29;20096;-75